Time;durP1;ratioP1;P1;durP2;ratioP2;P2;SDS_P1;SDS_P2;PMS_P1;PMS_P2;Temp;Humidity;BMP_temperature;BMP_pressure;BME280_temperature;BME280_humidity;BME280_pressure;Samples;Min_cycle;Max_cycle;Signal;HPM_P1;HPM_P2
2021/10/27 00:01:10;;;;;;;9.77;5.45;;;;;;;9.40;100.00;101337.88;5023657;28;20508;-76
2021/10/27 00:03:35;;;;;;;11.90;6.00;;;;;;;9.42;100.00;101337.63;5027849;28;20030;-76
2021/10/27 00:06:01;;;;;;;10.38;5.78;;;;;;;9.44;100.00;101335.38;4984951;28;20581;-76
2021/10/27 00:08:26;;;;;;;8.55;5.45;;;;;;;9.44;100.00;101326.25;5042375;28;20057;-76
2021/10/27 00:10:52;;;;;;;14.70;5.72;;;;;;;9.43;100.00;101336.50;5010219;28;20076;-76
2021/10/27 00:13:20;;;;;;;8.60;5.60;;;;;;;9.44;100.00;101332.63;5018488;28;20148;-76
2021/10/27 00:15:49;;;;;;;9.05;5.75;;;;;;;9.44;100.00;101329.00;5022114;28;20033;-77
2021/10/27 00:18:14;;;;;;;11.82;5.45;;;;;;;9.44;100.00;101337.31;5016592;28;20113;-77
2021/10/27 00:20:40;;;;;;;10.77;5.38;;;;;;;9.48;100.00;101335.72;5026962;28;20063;-77
2021/10/27 00:23:06;;;;;;;9.98;5.60;;;;;;;9.49;100.00;101337.38;5018886;28;20057;-77
2021/10/27 00:25:31;;;;;;;12.13;5.63;;;;;;;9.50;100.00;101339.03;5033556;28;20049;-77
2021/10/27 00:27:57;;;;;;;9.07;6.45;;;;;;;9.53;100.00;101341.28;4999319;28;20029;-76
2021/10/27 00:30:24;;;;;;;6.38;4.80;;;;;;;9.53;100.00;101344.91;5003519;28;20049;-76
2021/10/27 00:32:49;;;;;;;9.02;5.55;;;;;;;9.56;100.00;101338.81;5001759;28;20482;-76
2021/10/27 00:35:15;;;;;;;7.57;4.78;;;;;;;9.58;100.00;101342.16;4989278;28;20095;-76
2021/10/27 00:37:47;;;;;;;9.43;5.10;;;;;;;9.59;100.00;101341.06;5010537;28;20065;-76
2021/10/27 00:40:12;;;;;;;7.32;4.78;;;;;;;9.62;100.00;101337.75;4999713;28;20030;-76
2021/10/27 00:42:38;;;;;;;7.30;4.50;;;;;;;9.63;100.00;101330.25;5015865;28;20079;-76
2021/10/27 00:45:04;;;;;;;8.98;4.38;;;;;;;9.67;100.00;101336.09;5014598;28;20033;-76
2021/10/27 00:47:29;;;;;;;6.25;4.00;;;;;;;9.67;100.00;101339.72;5004809;28;20034;-76
2021/10/27 00:49:55;;;;;;;6.32;4.50;;;;;;;9.70;100.00;101332.81;5039221;28;20379;-76
2021/10/27 00:52:21;;;;;;;5.45;4.10;;;;;;;9.71;100.00;101338.06;5028225;28;20109;-77
2021/10/27 00:54:48;;;;;;;7.55;4.28;;;;;;;9.74;100.00;101339.47;5005467;28;20030;-77
2021/10/27 00:57:15;;;;;;;6.93;3.92;;;;;;;9.74;100.00;101339.47;5038949;28;20493;-76
2021/10/27 00:59:42;;;;;;;5.78;4.03;;;;;;;9.77;100.00;101334.22;5006787;28;20068;-77
2021/10/27 01:02:09;;;;;;;5.18;3.90;;;;;;;9.78;100.00;101329.53;5007862;28;20029;-76
2021/10/27 01:04:35;;;;;;;6.32;3.75;;;;;;;9.79;100.00;101331.19;5013612;28;20029;-76
2021/10/27 01:07:01;;;;;;;4.25;3.60;;;;;;;9.80;100.00;101327.28;5036612;28;20446;-76
2021/10/27 01:09:26;;;;;;;5.95;3.78;;;;;;;9.80;100.00;101330.06;5002270;28;20107;-76
2021/10/27 01:11:52;;;;;;;4.93;3.60;;;;;;;9.82;100.00;101319.53;5028227;28;20040;-76
2021/10/27 01:14:17;;;;;;;5.82;3.42;;;;;;;9.83;100.00;101315.66;5006442;28;20037;-77
2021/10/27 01:16:45;;;;;;;4.97;3.50;;;;;;;9.84;100.00;101311.81;5025124;28;20030;-76
2021/10/27 01:19:11;;;;;;;4.50;2.88;;;;;;;9.86;100.00;101304.03;5012289;28;20042;-76
2021/10/27 01:21:40;;;;;;;5.85;3.15;;;;;;;9.86;100.00;101306.78;5056312;28;20029;-76
2021/10/27 01:24:06;;;;;;;3.35;2.90;;;;;;;9.87;100.00;101307.66;5014132;28;20026;-76
2021/10/27 01:26:32;;;;;;;4.55;2.97;;;;;;;9.86;100.00;101306.78;5027847;28;20045;-76
2021/10/27 01:28:58;;;;;;;3.33;2.83;;;;;;;9.87;100.00;101305.72;5033821;28;20037;-76
2021/10/27 01:31:24;;;;;;;4.18;3.10;;;;;;;9.87;100.00;101294.59;5022466;28;20025;-76
2021/10/27 01:33:49;;;;;;;3.55;2.50;;;;;;;9.87;100.00;101300.16;5027027;28;20030;-76
2021/10/27 01:36:16;;;;;;;6.70;2.90;;;;;;;9.88;100.00;101306.53;5009073;28;20149;-76
2021/10/27 01:38:41;;;;;;;3.80;2.65;;;;;;;9.89;100.00;101303.50;4988740;28;20044;-76
2021/10/27 01:41:07;;;;;;;5.97;2.42;;;;;;;9.90;100.00;101309.88;5039150;28;20175;-76
2021/10/27 01:43:49;;;;;;;3.72;2.35;;;;;;;9.90;100.00;101296.84;5038977;28;20038;-77
2021/10/27 01:46:35;;;;;;;2.85;2.10;;;;;;;9.91;100.00;101289.34;5035201;28;20025;-77
2021/10/27 01:49:01;;;;;;;2.47;2.25;;;;;;;9.90;100.00;101288.50;5013836;28;20097;-76
2021/10/27 01:51:27;;;;;;;2.55;2.20;;;;;;;9.91;100.00;101289.34;5029067;28;20367;-77
2021/10/27 01:53:53;;;;;;;2.88;2.22;;;;;;;9.91;100.00;101284.63;5002379;28;20033;-77
2021/10/27 01:56:19;;;;;;;2.35;2.15;;;;;;;9.92;100.00;101279.91;5023191;28;20041;-77
2021/10/27 01:58:44;;;;;;;3.10;1.92;;;;;;;9.93;100.00;101276.88;4993010;28;20029;-76
2021/10/27 02:01:13;;;;;;;6.13;2.80;;;;;;;9.91;100.00;101279.06;4997101;28;20155;-76
2021/10/27 02:03:39;;;;;;;2.78;2.40;;;;;;;9.89;100.00;101270.22;5013743;28;20033;-76
2021/10/27 02:06:04;;;;;;;2.72;1.90;;;;;;;9.91;100.00;101278.25;4995204;28;20036;-76
2021/10/27 02:08:30;;;;;;;3.97;2.08;;;;;;;9.90;100.00;101276.59;5032546;28;20025;-76
2021/10/27 02:10:56;;;;;;;2.25;1.90;;;;;;;9.93;100.00;101281.59;5030132;28;20025;-76
2021/10/27 02:13:22;;;;;;;1.95;1.75;;;;;;;9.92;100.00;101277.13;5031308;28;20063;-76
2021/10/27 02:15:47;;;;;;;3.33;1.63;;;;;;;9.94;100.00;101272.16;5018667;28;20437;-76
2021/10/27 02:18:13;;;;;;;1.98;1.77;;;;;;;9.94;100.00;101267.44;5053967;28;20033;-76
2021/10/27 02:20:38;;;;;;;2.35;1.70;;;;;;;9.91;100.00;101261.59;5026399;28;20025;-76
2021/10/27 02:23:04;;;;;;;1.80;1.45;;;;;;;9.94;100.00;101255.50;5004589;28;20033;-76
2021/10/27 02:25:32;;;;;;;2.10;1.63;;;;;;;9.94;100.00;101259.09;4999855;28;20065;-76
2021/10/27 02:27:58;;;;;;;1.92;1.40;;;;;;;9.92;100.00;101255.78;5029430;28;20409;-77
2021/10/27 02:30:24;;;;;;;1.77;1.45;;;;;;;9.92;100.00;101257.69;5013829;28;20029;-77
2021/10/27 02:32:50;;;;;;;1.50;1.40;;;;;;;9.89;100.00;101250.78;5038315;28;20044;-76
2021/10/27 02:35:16;;;;;;;4.15;1.60;;;;;;;9.92;100.00;101250.25;5035366;28;20388;-76
2021/10/27 02:37:41;;;;;;;1.30;1.20;;;;;;;9.92;100.00;101239.16;5017883;28;20025;-76
2021/10/27 02:40:08;;;;;;;1.92;1.40;;;;;;;9.92;100.00;101236.38;5019460;28;20473;-76
2021/10/27 02:42:34;;;;;;;1.40;1.30;;;;;;;9.94;100.00;101238.84;5032862;28;20385;-76
2021/10/27 02:44:59;;;;;;;2.80;1.42;;;;;;;9.92;100.00;101233.59;5041197;28;20033;-76
2021/10/27 02:47:25;;;;;;;1.90;1.70;;;;;;;9.92;100.00;101241.91;4989713;28;20041;-76
2021/10/27 02:49:50;;;;;;;1.60;1.40;;;;;;;9.93;100.00;101234.41;5034151;28;20042;-76
2021/10/27 02:52:16;;;;;;;1.95;1.30;;;;;;;9.93;100.00;101226.94;5018186;28;20025;-76
2021/10/27 02:54:42;;;;;;;1.60;1.50;;;;;;;9.93;100.00;101229.69;5052578;28;20125;-76
2021/10/27 02:57:08;;;;;;;1.40;1.30;;;;;;;9.91;100.00;101223.59;5036292;28;20065;-76
2021/10/27 02:59:33;;;;;;;1.48;1.38;;;;;;;9.92;100.00;101236.38;5020314;28;20032;-76
2021/10/27 03:01:59;;;;;;;3.08;1.42;;;;;;;9.90;100.00;101233.03;5003129;28;20026;-76
2021/10/27 03:04:24;;;;;;;6.07;1.70;;;;;;;9.89;100.00;101234.13;5018031;28;20560;-76
2021/10/27 03:06:52;;;;;;;1.60;1.50;;;;;;;9.89;100.00;101234.13;5017457;28;20028;-76
2021/10/27 03:09:18;;;;;;;1.55;1.45;;;;;;;9.90;100.00;101238.56;5036732;28;20041;-76
2021/10/27 03:11:43;;;;;;;1.63;1.40;;;;;;;9.87;100.00;101241.91;5024743;28;20037;-76
2021/10/27 03:14:09;;;;;;;1.65;1.40;;;;;;;9.91;100.00;101244.94;5061721;28;20033;-76
2021/10/27 03:16:34;;;;;;;1.33;1.20;;;;;;;9.90;100.00;101238.56;5038055;28;20060;-76
2021/10/27 03:19:00;;;;;;;1.27;1.17;;;;;;;9.92;100.00;101241.91;5019187;28;20043;-76
2021/10/27 03:21:25;;;;;;;2.30;1.40;;;;;;;9.93;100.00;101249.13;5014607;28;20022;-76
2021/10/27 03:23:51;;;;;;;1.40;1.20;;;;;;;9.95;100.00;101246.91;5035581;28;20068;-76
2021/10/27 03:26:16;;;;;;;1.17;1.08;;;;;;;9.95;100.00;101252.47;5020442;28;20066;-76
2021/10/27 03:28:42;;;;;;;1.45;1.33;;;;;;;9.95;100.00;101251.63;5002565;28;20675;-76
2021/10/27 03:31:08;;;;;;;1.52;1.30;;;;;;;9.98;100.00;101245.53;5003557;28;20029;-76
2021/10/27 03:33:33;;;;;;;2.72;1.70;;;;;;;9.98;100.00;101260.25;5021628;28;20061;-76
2021/10/27 03:35:59;;;;;;;1.88;1.40;;;;;;;9.99;100.00;101259.13;5001251;28;20025;-76
2021/10/27 03:38:24;;;;;;;2.05;1.45;;;;;;;10.00;100.00;101252.50;5001230;28;20036;-76
2021/10/27 03:40:50;;;;;;;1.60;1.40;;;;;;;10.00;100.00;101246.94;5037242;28;20022;-76
2021/10/27 03:43:18;;;;;;;1.98;1.50;;;;;;;10.02;100.00;101254.97;5012723;28;20088;-75
2021/10/27 03:45:44;;;;;;;2.17;1.90;;;;;;;10.00;100.00;101248.84;5056418;28;20039;-76
2021/10/27 03:48:09;;;;;;;2.33;1.50;;;;;;;10.01;100.00;101250.53;5023252;28;20030;-76
2021/10/27 03:50:35;;;;;;;1.70;1.55;;;;;;;10.01;100.00;101251.38;5025886;28;20042;-76
2021/10/27 03:53:00;;;;;;;1.75;1.42;;;;;;;10.02;100.00;101244.72;5032735;28;20033;-76
2021/10/27 03:55:26;;;;;;;2.03;1.80;;;;;;;10.02;100.00;101247.47;5033980;28;20026;-76
2021/10/27 03:57:51;;;;;;;2.08;1.60;;;;;;;10.05;100.00;101249.72;5033990;28;20509;-76
2021/10/27 04:00:17;;;;;;;2.33;2.00;;;;;;;10.04;100.00;101253.59;5019070;28;20025;-76
2021/10/27 04:02:43;;;;;;;3.28;1.90;;;;;;;10.02;100.00;101252.22;5018421;28;20125;-76
2021/10/27 04:05:08;;;;;;;2.05;1.73;;;;;;;10.04;100.00;101261.94;5000511;28;20493;-76
2021/10/27 04:07:36;;;;;;;2.55;1.60;;;;;;;10.04;100.00;101258.31;5018747;28;20036;-76
2021/10/27 04:10:06;;;;;;;13.25;3.03;;;;;;;10.04;100.00;101252.78;5018436;28;20041;-76
2021/10/27 04:12:34;;;;;;;3.42;2.00;;;;;;;10.06;100.00;101254.16;5018212;28;20594;-76
2021/10/27 04:15:00;;;;;;;2.20;2.00;;;;;;;10.06;100.00;101259.72;5064027;28;20029;-76
2021/10/27 04:17:25;;;;;;;1.83;1.60;;;;;;;10.09;100.00;101252.78;5031744;28;20041;-76
2021/10/27 04:19:51;;;;;;;2.63;1.40;;;;;;;10.10;100.00;101260.00;5007249;28;20390;-76
2021/10/27 04:22:16;;;;;;;1.70;1.60;;;;;;;10.09;100.00;101254.75;5026539;28;20030;-76
2021/10/27 04:24:42;;;;;;;1.95;1.83;;;;;;;10.11;100.00;101249.72;5027750;28;20045;-76
2021/10/27 04:27:07;;;;;;;1.40;1.27;;;;;;;10.14;100.00;101258.38;5032479;28;20025;-76
2021/10/27 04:29:33;;;;;;;1.75;1.65;;;;;;;10.15;100.00;101254.47;5025202;28;20069;-76
2021/10/27 04:31:58;;;;;;;2.42;1.98;;;;;;;10.12;100.00;101251.41;5031250;28;20038;-76
2021/10/27 04:34:24;;;;;;;2.20;1.95;;;;;;;10.14;100.00;101243.63;5028234;28;20473;-75
2021/10/27 04:36:50;;;;;;;1.60;1.45;;;;;;;10.15;100.00;101237.00;5014538;28;20485;-76
2021/10/27 04:39:15;;;;;;;1.50;1.40;;;;;;;10.17;100.00;101231.97;5036267;28;20025;-76
2021/10/27 04:41:41;;;;;;;2.10;1.80;;;;;;;10.17;100.00;101248.63;5015258;28;20033;-75
2021/10/27 04:44:06;;;;;;;3.00;2.38;;;;;;;10.13;100.00;101234.47;5025385;28;20033;-78
2021/10/27 04:46:32;;;;;;;3.28;2.40;;;;;;;10.17;100.00;101232.84;5037280;28;20043;-77
2021/10/27 04:48:57;;;;;;;3.35;2.65;;;;;;;10.19;100.00;101235.31;5034491;28;20034;-77
2021/10/27 04:51:23;;;;;;;3.83;2.38;;;;;;;10.20;100.00;101237.00;5026287;28;20061;-77
2021/10/27 04:53:48;;;;;;;3.47;2.00;;;;;;;10.17;100.00;101241.16;5026713;28;20037;-78
2021/10/27 04:56:14;;;;;;;2.95;2.15;;;;;;;10.21;100.00;101238.66;5018144;28;20573;-78
2021/10/27 04:58:39;;;;;;;1.98;1.77;;;;;;;10.19;100.00;101240.88;5017482;28;20029;-78
2021/10/27 05:01:04;;;;;;;2.83;2.30;;;;;;;10.19;100.00;101243.66;5016604;28;20029;-78
2021/10/27 05:03:30;;;;;;;3.30;2.85;;;;;;;10.21;100.00;101244.22;5001717;28;20038;-78
2021/10/27 05:05:56;;;;;;;3.13;2.40;;;;;;;10.22;100.00;101232.00;5019527;28;20025;-78
2021/10/27 05:08:22;;;;;;;4.10;3.42;;;;;;;10.21;100.00;101245.03;5002242;28;20044;-79
2021/10/27 05:10:49;;;;;;;3.30;2.58;;;;;;;10.22;100.00;101240.31;5018649;28;20041;-79
2021/10/27 05:13:15;;;;;;;3.00;2.67;;;;;;;10.21;100.00;101241.44;5018610;28;20065;-78
2021/10/27 05:15:40;;;;;;;3.15;2.83;;;;;;;10.22;100.00;101234.78;5015358;28;21706;-78
2021/10/27 05:18:06;;;;;;;3.53;3.17;;;;;;;10.22;100.00;101237.53;5018978;28;20040;-79
2021/10/27 05:20:32;;;;;;;4.07;3.47;;;;;;;10.24;100.00;101238.94;5012580;28;20394;-79
2021/10/27 05:22:57;;;;;;;5.30;4.50;;;;;;;10.24;100.00;101238.13;5001498;28;20642;-78
2021/10/27 05:25:23;;;;;;;4.40;3.92;;;;;;;10.26;100.00;101244.22;5002917;28;20072;-78
2021/10/27 05:27:48;;;;;;;3.67;3.30;;;;;;;10.23;100.00;101236.47;5031881;28;20383;-78
2021/10/27 05:30:14;;;;;;;5.65;4.22;;;;;;;10.24;100.00;101249.22;5030003;28;20022;-78
2021/10/27 05:32:39;;;;;;;4.03;3.60;;;;;;;10.26;100.00;101241.47;4984376;28;20041;-78
2021/10/27 05:35:05;;;;;;;4.93;3.40;;;;;;;10.24;100.00;101238.94;5001657;28;20041;-77
2021/10/27 05:37:31;;;;;;;5.07;3.28;;;;;;;10.24;100.00;101243.66;5027645;28;20104;-78
2021/10/27 05:39:57;;;;;;;4.10;3.10;;;;;;;10.25;100.00;101237.00;5009776;28;20032;-78
2021/10/27 05:42:27;;;;;;;4.28;3.55;;;;;;;10.27;100.00;101235.66;5006707;28;20025;-78
2021/10/27 05:44:52;;;;;;;5.13;3.22;;;;;;;10.28;100.00;101239.28;5020268;28;20041;-78
2021/10/27 05:47:18;;;;;;;3.75;3.00;;;;;;;10.29;100.00;101240.94;5021286;28;20037;-78
2021/10/27 05:49:53;;;;;;;3.58;2.90;;;;;;;10.30;100.00;101225.94;4999211;28;20096;-78
2021/10/27 05:55:08;;;;;;;4.25;3.65;;;;;;;10.33;100.00;101217.06;5036236;28;20095;-78
2021/10/27 05:57:36;;;;;;;3.95;3.40;;;;;;;10.33;100.00;101225.38;5020475;28;20030;-78
2021/10/27 06:00:04;;;;;;;4.13;3.30;;;;;;;10.33;100.00;101219.84;5011438;28;20030;-78
2021/10/27 06:02:29;;;;;;;4.15;3.40;;;;;;;10.32;100.00;101212.63;5019383;28;20030;-78
2021/10/27 06:04:55;;;;;;;4.40;3.38;;;;;;;10.34;100.00;101224.28;5020095;28;20363;-78
2021/10/27 06:07:20;;;;;;;3.67;2.88;;;;;;;10.34;100.00;101226.25;5037139;28;20045;-78
2021/10/27 06:09:48;;;;;;;3.55;2.85;;;;;;;10.36;100.00;101222.06;5021138;28;20045;-77
2021/10/27 06:12:14;;;;;;;3.65;3.20;;;;;;;10.38;100.00;101230.94;5021486;28;20465;-78
2021/10/27 06:14:40;;;;;;;3.40;2.90;;;;;;;10.36;100.00;101230.38;5005935;28;20029;-78
2021/10/27 06:17:06;;;;;;;6.32;4.70;;;;;;;10.38;100.00;101225.41;5001134;28;20080;-78
2021/10/27 06:19:32;;;;;;;3.95;3.42;;;;;;;10.37;100.00;101231.25;5048513;28;20027;-79
2021/10/27 06:21:57;;;;;;;4.10;3.38;;;;;;;10.38;100.00;101230.13;5004825;28;20069;-74
2021/10/27 06:24:23;;;;;;;4.70;3.92;;;;;;;10.38;100.00;101219.84;5036561;28;20046;-73
2021/10/27 06:26:55;;;;;;;4.38;3.63;;;;;;;10.37;100.00;101220.97;5039361;28;20036;-77
2021/10/27 06:29:33;;;;;;;4.22;3.67;;;;;;;10.38;100.00;101214.28;5021989;28;20095;-76
2021/10/27 06:32:10;;;;;;;5.57;3.63;;;;;;;10.40;100.00;101225.13;5019148;28;20033;-75
2021/10/27 06:34:39;;;;;;;6.10;3.28;;;;;;;10.42;100.00;101232.09;5008413;28;20040;-77
2021/10/27 06:37:30;;;;;;;6.55;3.88;;;;;;;10.44;100.00;101226.25;5024054;28;20033;-77
2021/10/27 06:48:08;;;;;;;5.97;4.03;;;;;;;10.45;100.00;101231.53;5009316;28;20030;-77
2021/10/27 06:50:34;;;;;;;4.50;3.80;;;;;;;10.46;100.00;101233.19;5016632;28;20426;-77
2021/10/27 06:52:59;;;;;;;5.88;4.50;;;;;;;10.47;100.00;101234.88;5004168;28;20040;-77
2021/10/27 06:56:16;;;;;;;5.88;4.43;;;;;;;10.45;100.00;101242.63;5023344;28;20037;-78
2021/10/27 07:17:36;;;;;;;7.55;5.88;;;;;;;10.52;100.00;101268.19;5044658;28;20138;-78
2021/10/27 07:20:12;;;;;;;6.18;5.28;;;;;;;10.54;100.00;101275.41;5016934;28;20018;-78
2021/10/27 07:22:56;;;;;;;7.10;5.53;;;;;;;10.54;100.00;101272.66;5001942;28;20128;-78
2021/10/27 07:25:25;;;;;;;10.30;7.22;;;;;;;10.54;100.00;101267.09;5027926;28;20577;-78
2021/10/27 07:27:53;;;;;;;8.50;6.20;;;;;;;10.58;100.00;101276.53;5022372;28;20029;-78
2021/10/27 07:30:32;;;;;;;7.75;5.32;;;;;;;10.58;100.00;101276.53;5004175;28;20030;-78
2021/10/27 07:33:19;;;;;;;10.43;7.82;;;;;;;10.60;100.00;101277.09;5032562;28;20053;-78
2021/10/27 07:41:45;;;;;;;8.93;6.47;;;;;;;10.65;100.00;101291.00;5007317;28;20031;-77
2021/10/27 07:47:15;;;;;;;7.85;6.32;;;;;;;10.66;100.00;101289.88;5030253;28;20073;-78
2021/10/27 07:49:57;;;;;;;9.13;7.18;;;;;;;10.66;100.00;101285.16;5021348;28;20033;-78
2021/10/27 07:52:31;;;;;;;9.15;7.00;;;;;;;10.69;100.00;101284.59;5022522;28;20049;-77
2021/10/27 07:55:00;;;;;;;9.07;5.68;;;;;;;10.69;100.00;101292.94;4984141;28;20124;-77
2021/10/27 07:57:26;;;;;;;8.18;6.38;;;;;;;10.70;100.00;101286.28;5016041;28;20456;-77
2021/10/27 07:59:55;;;;;;;9.57;6.50;;;;;;;10.72;100.00;101288.75;5017893;28;20029;-78
2021/10/27 08:02:21;;;;;;;9.45;6.60;;;;;;;10.75;100.00;101296.53;5004947;28;20116;-77
2021/10/27 08:04:47;;;;;;;9.30;6.43;;;;;;;10.76;100.00;101301.00;5033116;28;20033;-78
2021/10/27 08:07:16;;;;;;;9.18;7.15;;;;;;;10.80;100.00;101296.56;5003371;28;20045;-77
2021/10/27 08:09:42;;;;;;;9.93;7.05;;;;;;;10.81;100.00;101295.47;4983104;28;20045;-77
2021/10/27 08:12:14;;;;;;;7.30;5.90;;;;;;;10.83;100.00;101307.13;5001625;28;20064;-77
2021/10/27 08:14:54;;;;;;;8.15;5.85;;;;;;;10.85;100.00;101302.13;5002303;28;20140;-77
2021/10/27 08:17:23;;;;;;;8.88;5.35;;;;;;;10.87;100.00;101304.63;4987109;28;20036;-77
2021/10/27 08:20:04;;;;;;;7.65;4.93;;;;;;;10.90;100.00;101301.31;5010806;28;20032;-78
2021/10/27 08:22:31;;;;;;;6.47;5.00;;;;;;;10.92;100.00;101299.06;5010403;28;20571;-77
2021/10/27 08:25:28;;;;;;;8.52;5.60;;;;;;;10.95;100.00;101292.97;5028676;28;20045;-78
2021/10/27 08:28:00;;;;;;;8.43;5.65;;;;;;;10.98;100.00;101291.56;5043264;28;20057;-78
2021/10/27 08:30:38;;;;;;;10.23;6.68;;;;;;;11.02;100.00;101293.50;4984106;28;20025;-77
2021/10/27 08:33:06;;;;;;;8.02;6.07;;;;;;;11.05;100.00;101292.94;5003558;28;20048;-78
2021/10/27 08:35:44;;;;;;;8.85;6.75;;;;;;;11.09;100.00;101298.81;5019931;28;20025;-77
2021/10/27 08:38:10;;;;;;;9.02;6.40;;;;;;;11.13;100.00;101288.78;4982501;28;20033;-77
2021/10/27 08:40:36;;;;;;;6.60;5.35;;;;;;;11.15;100.00;101294.91;5032878;28;20034;-77
2021/10/27 08:43:02;;;;;;;7.28;5.70;;;;;;;11.19;100.00;101294.06;5018936;28;20385;-77
2021/10/27 08:45:28;;;;;;;9.25;7.28;;;;;;;11.24;100.00;101300.75;4986217;28;20048;-77
2021/10/27 08:47:54;;;;;;;10.10;6.78;;;;;;;11.29;100.00;101292.41;5037534;28;20030;-77
2021/10/27 08:50:20;;;;;;;6.45;5.40;;;;;;;11.31;100.00;101288.22;5017172;28;20435;-77
2021/10/27 08:52:47;;;;;;;8.93;6.28;;;;;;;11.36;100.00;101293.75;5016293;28;20060;-77
2021/10/27 08:55:15;;;;;;;8.48;5.68;;;;;;;11.42;100.00;101294.59;5024576;28;20396;-77
2021/10/27 08:57:44;;;;;;;9.43;6.22;;;;;;;11.48;100.00;101289.84;5037924;28;20029;-77
2021/10/27 09:00:21;;;;;;;10.20;6.97;;;;;;;11.54;100.00;101288.75;5041161;28;20646;-77
2021/10/27 09:02:56;;;;;;;9.50;6.80;;;;;;;11.59;100.00;101294.28;5020126;28;20044;-77
2021/10/27 09:35:50;;;;;;;10.63;7.03;;;;;;;12.37;100.00;101276.16;5033055;28;20112;-77
2021/10/27 10:04:07;;;;;;;13.32;8.45;;;;;;;12.86;100.00;101258.56;5018214;28;20049;-77
2021/10/27 10:06:40;;;;;;;15.00;9.07;;;;;;;12.89;100.00;101267.16;5037026;28;20017;-77
2021/10/27 10:09:07;;;;;;;15.25;9.05;;;;;;;12.92;100.00;101265.75;5032954;28;20037;-77
2021/10/27 10:11:33;;;;;;;15.30;9.02;;;;;;;12.91;100.00;101253.78;5033311;28;20037;-77
2021/10/27 10:14:03;;;;;;;12.63;8.50;;;;;;;12.92;100.00;101252.63;5015871;28;20034;-77
2021/10/27 10:16:31;;;;;;;12.93;8.85;;;;;;;12.91;100.00;101252.94;5013839;28;20021;-77
2021/10/27 10:18:59;;;;;;;13.27;9.55;;;;;;;12.93;100.00;101253.50;5005768;28;20520;-77
2021/10/27 10:21:29;;;;;;;12.70;8.10;;;;;;;12.92;100.00;101254.59;4995938;28;20368;-77
2021/10/27 10:24:17;;;;;;;12.38;8.70;;;;;;;12.94;100.00;101244.00;5021815;28;20026;-77
2021/10/27 10:26:44;;;;;;;11.88;8.27;;;;;;;12.94;100.00;101244.00;5018022;28;20033;-77
2021/10/27 10:29:09;;;;;;;14.43;9.18;;;;;;;12.95;100.00;101242.84;5000257;28;20449;-77
2021/10/27 10:31:36;;;;;;;12.95;8.65;;;;;;;12.94;100.00;101244.00;5004562;28;20068;-76
2021/10/27 10:34:09;;;;;;;13.40;8.88;;;;;;;12.93;100.00;101240.38;5017935;28;20126;-75
2021/10/27 10:36:40;;;;;;;;;;;;;;;12.94;100.00;101246.78;5016354;28;20372;-75
2021/10/27 10:41:55;;;;;;;10.35;7.50;;;;;;;12.94;100.00;101236.47;5018819;28;20450;-75
2021/10/27 10:45:24;;;;;;;12.23;7.80;;;;;;;12.98;100.00;101242.28;5021010;28;20033;-77
2021/10/27 11:03:11;;;;;;;16.52;10.75;;;;;;;13.16;100.00;101235.97;5015680;28;20034;-74
2021/10/27 11:24:52;;;;;;;11.27;7.45;;;;;;;13.35;100.00;101224.13;5028764;28;20571;-75
2021/10/27 11:38:17;;;;;;;9.23;7.22;;;;;;;13.40;100.00;101207.34;5035089;28;20064;-77
2021/10/27 11:40:55;;;;;;;15.38;8.75;;;;;;;13.40;100.00;101221.28;5028429;28;20101;-77
2021/10/27 11:43:36;;;;;;;11.68;8.30;;;;;;;13.40;100.00;101210.94;5006228;28;20026;-77
2021/10/27 11:46:22;;;;;;;10.82;7.13;;;;;;;13.44;100.00;101208.38;5005210;28;20025;-77
2021/10/27 11:48:58;;;;;;;10.00;7.63;;;;;;;13.44;100.00;101205.59;5018736;28;20087;-77
2021/10/27 11:51:27;;;;;;;10.27;7.78;;;;;;;13.49;100.00;101196.34;5025729;28;20029;-77
2021/10/27 11:53:58;;;;;;;10.10;7.20;;;;;;;13.49;100.00;101196.34;5004616;28;20537;-77
2021/10/27 11:56:28;;;;;;;13.48;7.30;;;;;;;13.52;100.00;101188.19;5015742;28;20029;-77
2021/10/27 11:59:00;;;;;;;12.07;7.70;;;;;;;13.54;100.00;101180.38;5034806;28;20029;-77
2021/10/27 12:01:41;;;;;;;10.85;7.25;;;;;;;13.59;100.00;101182.25;4992539;28;20061;-77
2021/10/27 12:04:13;;;;;;;11.30;7.28;;;;;;;13.63;100.00;101177.75;5002761;28;20386;-77
2021/10/27 12:06:46;;;;;;;12.80;7.88;;;;;;;13.68;100.00;101182.41;5028347;28;20029;-77
2021/10/27 12:09:27;;;;;;;10.55;7.57;;;;;;;13.74;100.00;101178.44;4999938;28;20041;-77
2021/10/27 12:17:29;;;;;;;14.45;9.25;;;;;;;13.86;100.00;101165.69;5057112;28;19909;-77
2021/10/27 12:19:55;;;;;;;18.60;10.27;;;;;;;13.92;100.00;101160.88;5014009;28;20030;-77
2021/10/27 12:22:32;;;;;;;15.40;10.13;;;;;;;13.95;100.00;101157.47;5015587;28;20056;-77
2021/10/27 12:25:08;;;;;;;17.95;11.70;;;;;;;13.98;100.00;101148.50;5027047;28;20046;-77
2021/10/27 12:27:38;;;;;;;17.88;10.88;;;;;;;14.03;100.00;101150.41;5020533;28;20433;-77
2021/10/27 12:30:13;;;;;;;17.00;11.00;;;;;;;14.09;100.00;101138.84;5028569;28;20029;-77
2021/10/27 12:32:50;;;;;;;19.50;11.18;;;;;;;14.17;100.00;101136.50;5003619;28;20028;-77
2021/10/27 12:35:28;;;;;;;14.60;9.65;;;;;;;14.23;100.00;101135.28;5029018;28;20034;-77
2021/10/27 12:38:15;;;;;;;17.63;10.20;;;;;;;14.27;100.00;101133.56;4997784;28;20475;-77
2021/10/27 12:40:48;;;;;;;12.98;8.88;;;;;;;14.36;100.00;101134.53;5037366;28;20049;-77
2021/10/27 12:43:16;;;;;;;13.73;8.82;;;;;;;14.43;100.00;101134.13;5019128;28;20037;-77
2021/10/27 12:45:46;;;;;;;12.13;8.27;;;;;;;14.50;100.00;101129.81;4998423;28;20437;-77
2021/10/27 12:48:19;;;;;;;14.88;8.20;;;;;;;14.57;100.00;101123.88;5002581;28;20038;-77
2021/10/27 12:50:52;;;;;;;;;;;;;;;14.66;100.00;101126.78;5001621;28;20030;-77
2021/10/27 12:53:39;;;;;;;16.13;8.20;;;;;;;14.72;100.00;101120.78;5017476;28;20343;-77
2021/10/27 12:56:22;;;;;;;11.52;7.43;;;;;;;14.85;100.00;101118.31;5013771;28;20036;-77
2021/10/27 12:58:54;;;;;;;13.57;7.38;;;;;;;14.92;100.00;101113.16;4984857;28;20061;-78
2021/10/27 13:10:07;;;;;;;12.98;6.95;;;;;;;15.17;99.76;101083.84;5003845;28;20044;-78
2021/10/27 13:12:53;;;;;;;11.68;6.20;;;;;;;15.28;99.90;101088.09;4993754;28;20044;-77
2021/10/27 13:16:08;;;;;;;11.52;5.70;;;;;;;15.34;99.44;101086.84;5019287;28;20033;-77
2021/10/27 13:18:40;;;;;;;9.15;5.07;;;;;;;15.39;98.60;101077.53;5015690;28;20067;-77
2021/10/27 13:21:27;;;;;;;10.32;4.85;;;;;;;15.42;97.78;101071.28;5040737;28;20029;-77
2021/10/27 13:29:42;;;;;;;10.13;4.53;;;;;;;15.45;96.48;101058.66;5014835;28;20113;-77
2021/10/27 13:32:24;;;;;;;13.90;5.32;;;;;;;15.47;96.94;101056.38;5001391;28;20033;-77
2021/10/27 13:34:50;;;;;;;9.00;5.00;;;;;;;15.45;96.91;101053.06;5005160;28;20037;-78
2021/10/27 13:37:46;;;;;;;12.88;5.35;;;;;;;15.47;97.30;101054.41;5006803;28;20156;-77
2021/10/27 13:40:17;;;;;;;10.50;5.00;;;;;;;15.49;96.72;101049.31;5031481;28;20036;-77
2021/10/27 13:42:59;;;;;;;10.93;4.60;;;;;;;15.50;96.39;101052.94;4986893;28;20035;-77
2021/10/27 14:07:33;;;;;;;12.07;5.75;;;;;;;15.35;94.18;101031.69;5039267;28;20036;-78
2021/10/27 14:10:29;;;;;;;10.73;5.63;;;;;;;15.34;94.26;101032.84;5007606;28;20069;-78
2021/10/27 14:19:01;;;;;;;11.00;5.60;;;;;;;15.16;94.93;101017.88;5047132;28;20029;-78
2021/10/27 15:21:58;;;;;;;16.13;5.60;;;;;;;14.59;97.75;100969.81;5027855;28;20084;-78
2021/10/27 15:42:32;;;;;;;9.38;4.70;;;;;;;14.49;98.29;100954.88;5018193;28;20079;-77
2021/10/27 15:51:20;;;;;;;10.32;4.80;;;;;;;14.40;98.39;100939.13;5034566;28;20033;-78
2021/10/27 15:53:13;;;;;;;8.38;4.88;;;;;;;14.35;98.44;100936.44;5000755;28;20041;-78
2021/10/27 15:55:47;;;;;;;7.40;4.57;;;;;;;14.28;98.62;100932.09;5015321;28;20045;-78
2021/10/27 15:58:23;;;;;;;10.50;4.60;;;;;;;14.25;98.40;100926.28;5015507;28;20448;-78
2021/10/27 16:00:59;;;;;;;9.43;4.30;;;;;;;14.18;98.53;100923.91;4985490;28;20493;-78
2021/10/27 16:03:50;;;;;;;10.00;4.93;;;;;;;14.13;98.42;100926.81;5006276;28;20026;-78
2021/10/27 16:06:26;;;;;;;9.82;4.40;;;;;;;14.07;98.79;100920.47;5014919;28;20120;-78